sensor_id;sensor_type;location;lat;lon;timestamp;temperature;humidity
55719;DHT22;41623;46.104;19.656;2022-09-13T00:01:20;486.90;1484.80
55719;DHT22;41623;46.104;19.656;2022-09-13T00:03:46;486.90;1484.80
55719;DHT22;41623;46.104;19.656;2022-09-13T00:06:17;486.80;1484.80
55719;DHT22;41623;46.104;19.656;2022-09-13T00:08:43;486.80;1484.80
55719;DHT22;41623;46.104;19.656;2022-09-13T00:11:16;486.90;1484.80
55719;DHT22;41623;46.104;19.656;2022-09-13T00:13:43;486.90;1484.80
55719;DHT22;41623;46.104;19.656;2022-09-13T00:16:13;486.80;1484.80
55719;DHT22;41623;46.104;19.656;2022-09-13T00:18:40;486.80;1484.80
55719;DHT22;41623;46.104;19.656;2022-09-13T00:21:11;486.80;1484.80
55719;DHT22;41623;46.104;19.656;2022-09-13T00:23:37;486.80;1484.80
55719;DHT22;41623;46.104;19.656;2022-09-13T00:26:05;486.80;1484.80
55719;DHT22;41623;46.104;19.656;2022-09-13T00:28:32;486.80;1459.20
55719;DHT22;41623;46.104;19.656;2022-09-13T00:31:00;486.80;1484.80
55719;DHT22;41623;46.104;19.656;2022-09-13T00:33:26;486.80;1484.80
55719;DHT22;41623;46.104;19.656;2022-09-13T00:35:51;486.70;1484.80
55719;DHT22;41623;46.104;19.656;2022-09-13T00:38:17;486.70;1484.80
55719;DHT22;41623;46.104;19.656;2022-09-13T00:40:43;486.70;1510.40
55719;DHT22;41623;46.104;19.656;2022-09-13T00:43:17;486.60;1484.80
55719;DHT22;41623;46.104;19.656;2022-09-13T00:45:43;486.60;1484.80
55719;DHT22;41623;46.104;19.656;2022-09-13T00:48:18;486.50;1484.80
55719;DHT22;41623;46.104;19.656;2022-09-13T00:50:50;486.50;1510.40
55719;DHT22;41623;46.104;19.656;2022-09-13T00:53:21;486.50;1510.40
55719;DHT22;41623;46.104;19.656;2022-09-13T00:55:57;486.50;1510.40
55719;DHT22;41623;46.104;19.656;2022-09-13T01:00:56;486.50;1510.40
55719;DHT22;41623;46.104;19.656;2022-09-13T01:03:26;486.50;1510.40
55719;DHT22;41623;46.104;19.656;2022-09-13T01:06:00;486.50;1510.40
55719;DHT22;41623;46.104;19.656;2022-09-13T01:08:28;486.50;1536.00
55719;DHT22;41623;46.104;19.656;2022-09-13T01:10:58;486.50;1536.00
55719;DHT22;41623;46.104;19.656;2022-09-13T01:13:30;486.50;1536.00
55719;DHT22;41623;46.104;19.656;2022-09-13T01:15:57;486.50;1561.60
55719;DHT22;41623;46.104;19.656;2022-09-13T01:18:23;486.50;1510.40
55719;DHT22;41623;46.104;19.656;2022-09-13T01:27:03;486.50;1561.60
55719;DHT22;41623;46.104;19.656;2022-09-13T01:30:07;486.50;1536.00
55719;DHT22;41623;46.104;19.656;2022-09-13T01:46:42;486.40;1510.40
55719;DHT22;41623;46.104;19.656;2022-09-13T01:52:00;461.70;1536.00
55719;DHT22;41623;46.104;19.656;2022-09-13T01:54:36;461.70;1536.00
55719;DHT22;41623;46.104;19.656;2022-09-13T02:00:02;461.60;1561.60
55719;DHT22;41623;46.104;19.656;2022-09-13T02:02:36;461.60;1536.00
55719;DHT22;41623;46.104;19.656;2022-09-13T02:08:05;461.70;1510.40
55719;DHT22;41623;46.104;19.656;2022-09-13T02:10:36;461.70;1715.20
55719;DHT22;41623;46.104;19.656;2022-09-13T02:13:05;461.60;1536.00
55719;DHT22;41623;46.104;19.656;2022-09-13T02:15:40;461.70;1561.60
55719;DHT22;41623;46.104;19.656;2022-09-13T02:18:09;461.70;1561.60
55719;DHT22;41623;46.104;19.656;2022-09-13T02:20:40;461.70;1561.60
55719;DHT22;41623;46.104;19.656;2022-09-13T02:23:17;486.50;1536.00
55719;DHT22;41623;46.104;19.656;2022-09-13T02:25:46;486.40;1561.60
55719;DHT22;41623;46.104;19.656;2022-09-13T02:28:25;486.40;1536.00
55719;DHT22;41623;46.104;19.656;2022-09-13T02:30:53;461.70;1536.00
55719;DHT22;41623;46.104;19.656;2022-09-13T02:33:27;486.40;1561.60
55719;DHT22;41623;46.104;19.656;2022-09-13T02:36:11;486.40;1536.00
55719;DHT22;41623;46.104;19.656;2022-09-13T02:43:49;461.70;1561.60
55719;DHT22;41623;46.104;19.656;2022-09-13T02:52:11;461.50;1536.00
55719;DHT22;41623;46.104;19.656;2022-09-13T02:54:57;461.40;1561.60
55719;DHT22;41623;46.104;19.656;2022-09-13T02:57:30;461.40;1561.60
55719;DHT22;41623;46.104;19.656;2022-09-13T02:59:58;461.40;1561.60
55719;DHT22;41623;46.104;19.656;2022-09-13T03:02:30;461.50;1561.60
55719;DHT22;41623;46.104;19.656;2022-09-13T03:04:58;461.40;1587.20
55719;DHT22;41623;46.104;19.656;2022-09-13T03:07:23;461.50;1536.00
55719;DHT22;41623;46.104;19.656;2022-09-13T03:09:53;461.50;1536.00
55719;DHT22;41623;46.104;19.656;2022-09-13T03:43:03;461.20;1740.80
55719;DHT22;41623;46.104;19.656;2022-09-13T03:45:35;461.10;1561.60
55719;DHT22;41623;46.104;19.656;2022-09-13T03:48:03;461.10;1817.60
55719;DHT22;41623;46.104;19.656;2022-09-13T03:50:29;461.20;1561.60
55719;DHT22;41623;46.104;19.656;2022-09-13T03:55:28;461.40;1587.20
55719;DHT22;41623;46.104;19.656;2022-09-13T03:57:54;461.50;1536.00
55719;DHT22;41623;46.104;19.656;2022-09-13T04:00:20;461.40;1587.20
55719;DHT22;41623;46.104;19.656;2022-09-13T04:02:46;461.40;1536.00
55719;DHT22;41623;46.104;19.656;2022-09-13T04:05:12;461.50;1510.40
55719;DHT22;41623;46.104;19.656;2022-09-13T04:07:38;461.20;1536.00
55719;DHT22;41623;46.104;19.656;2022-09-13T04:10:04;461.10;1510.40
55719;DHT22;41623;46.104;19.656;2022-09-13T04:12:29;461.20;1536.00
55719;DHT22;41623;46.104;19.656;2022-09-13T06:17:15;486.50;1510.40
55719;DHT22;41623;46.104;19.656;2022-09-13T06:19:41;486.40;1510.40
55719;DHT22;41623;46.104;19.656;2022-09-13T06:22:07;486.50;1484.80
55719;DHT22;41623;46.104;19.656;2022-09-13T06:24:33;486.50;1484.80
55719;DHT22;41623;46.104;19.656;2022-09-13T06:27:02;486.50;1484.80
55719;DHT22;41623;46.104;19.656;2022-09-13T06:29:27;486.50;1510.40
55719;DHT22;41623;46.104;19.656;2022-09-13T06:31:53;486.50;1510.40
55719;DHT22;41623;46.104;19.656;2022-09-13T06:34:19;486.60;1459.20
55719;DHT22;41623;46.104;19.656;2022-09-13T06:36:45;486.60;1459.20
55719;DHT22;41623;46.104;19.656;2022-09-13T06:39:11;486.70;1433.60
55719;DHT22;41623;46.104;19.656;2022-09-13T06:41:36;486.80;1433.60
55719;DHT22;41623;46.104;19.656;2022-09-13T06:44:03;486.60;1459.20
55719;DHT22;41623;46.104;19.656;2022-09-13T06:46:31;486.80;1433.60
55719;DHT22;41623;46.104;19.656;2022-09-13T06:49:02;487.00;1433.60
55719;DHT22;41623;46.104;19.656;2022-09-13T06:51:29;487.10;1459.20
55719;DHT22;41623;46.104;19.656;2022-09-13T06:53:55;487.20;1459.20
55719;DHT22;41623;46.104;19.656;2022-09-13T06:56:24;487.10;1484.80
55719;DHT22;41623;46.104;19.656;2022-09-13T07:06:22;512.50;1408.00
55719;DHT22;41623;46.104;19.656;2022-09-13T07:08:50;512.40;1433.60
55719;DHT22;41623;46.104;19.656;2022-09-13T07:11:17;512.40;1408.00
55719;DHT22;41623;46.104;19.656;2022-09-13T07:13:52;512.30;1382.40
55719;DHT22;41623;46.104;19.656;2022-09-13T07:16:19;512.30;1356.80
55719;DHT22;41623;46.104;19.656;2022-09-13T07:18:53;512.40;1356.80
55719;DHT22;41623;46.104;19.656;2022-09-13T07:21:20;512.40;1382.40
55719;DHT22;41623;46.104;19.656;2022-09-13T07:23:46;512.50;1356.80
55719;DHT22;41623;46.104;19.656;2022-09-13T07:26:12;512.40;1331.20
55719;DHT22;41623;46.104;19.656;2022-09-13T07:28:40;512.40;1331.20
55719;DHT22;41623;46.104;19.656;2022-09-13T07:31:15;512.50;1305.60
55719;DHT22;41623;46.104;19.656;2022-09-13T07:33:42;512.50;1356.80
55719;DHT22;41623;46.104;19.656;2022-09-13T07:36:09;512.50;1305.60
55719;DHT22;41623;46.104;19.656;2022-09-13T07:38:37;512.50;1382.40
55719;DHT22;41623;46.104;19.656;2022-09-13T07:41:04;512.60;1356.80
55719;DHT22;41623;46.104;19.656;2022-09-13T07:43:33;512.60;1331.20
55719;DHT22;41623;46.104;19.656;2022-09-13T07:46:01;512.60;1356.80
55719;DHT22;41623;46.104;19.656;2022-09-13T07:48:29;512.60;1331.20
55719;DHT22;41623;46.104;19.656;2022-09-13T07:53:24;512.70;1356.80
55719;DHT22;41623;46.104;19.656;2022-09-13T07:55:50;512.80;1356.80
55719;DHT22;41623;46.104;19.656;2022-09-13T07:58:15;512.80;1356.80
55719;DHT22;41623;46.104;19.656;2022-09-13T08:00:41;537.70;1382.40
55719;DHT22;41623;46.104;19.656;2022-09-13T08:03:07;512.90;1356.80
55719;DHT22;41623;46.104;19.656;2022-09-13T08:05:38;512.90;1305.60
55719;DHT22;41623;46.104;19.656;2022-09-13T08:08:05;512.90;1331.20
55719;DHT22;41623;46.104;19.656;2022-09-13T08:10:35;512.90;1356.80
55719;DHT22;41623;46.104;19.656;2022-09-13T08:13:01;512.90;1331.20
55719;DHT22;41623;46.104;19.656;2022-09-13T08:15:27;512.90;1331.20
55719;DHT22;41623;46.104;19.656;2022-09-13T08:17:52;512.90;1280.00
55719;DHT22;41623;46.104;19.656;2022-09-13T08:20:19;537.60;1356.80
55719;DHT22;41623;46.104;19.656;2022-09-13T08:22:45;537.60;1382.40
55719;DHT22;41623;46.104;19.656;2022-09-13T08:25:11;537.70;1433.60
55719;DHT22;41623;46.104;19.656;2022-09-13T08:27:37;537.70;1484.80
55719;DHT22;41623;46.104;19.656;2022-09-13T08:30:03;537.80;1356.80
55719;DHT22;41623;46.104;19.656;2022-09-13T08:32:30;537.80;1382.40
55719;DHT22;41623;46.104;19.656;2022-09-13T08:34:55;537.80;1433.60
55719;DHT22;41623;46.104;19.656;2022-09-13T08:42:48;538.40;1382.40
55719;DHT22;41623;46.104;19.656;2022-09-13T08:45:15;538.00;1382.40
55719;DHT22;41623;46.104;19.656;2022-09-13T08:47:55;538.00;1433.60
55719;DHT22;41623;46.104;19.656;2022-09-13T08:50:26;538.10;1408.00
55719;DHT22;41623;46.104;19.656;2022-09-13T09:25:44;563.80;1356.80
